createdAt,value
2019-03-05T00:01:43.866Z,990.72
2019-03-05T00:02:43.855Z,990.78
2019-03-05T00:03:44.053Z,990.74
2019-03-05T00:04:44.048Z,990.83
2019-03-05T00:05:43.829Z,990.72
2019-03-05T00:06:43.825Z,990.98
2019-03-05T00:07:44.017Z,990.82
2019-03-05T00:08:43.812Z,990.80
2019-03-05T00:09:43.795Z,990.89
2019-03-05T00:10:43.793Z,990.87
2019-03-05T00:11:43.777Z,990.89
2019-03-05T00:12:43.777Z,990.87
2019-03-05T00:13:43.764Z,991.02
2019-03-05T00:14:43.756Z,990.99
2019-03-05T00:15:43.751Z,990.92
2019-03-05T00:16:43.739Z,990.99
2019-03-05T00:18:43.719Z,990.91
2019-03-05T00:19:43.919Z,991.14
2019-03-05T00:20:43.708Z,990.89
2019-03-05T00:21:43.698Z,990.95
2019-03-05T00:22:43.682Z,990.93
2019-03-05T00:23:43.674Z,991.05
2019-03-05T00:24:43.871Z,991.03
2019-03-05T00:25:43.661Z,990.93
2019-03-05T00:26:43.648Z,990.92
2019-03-05T00:27:43.645Z,991.10
2019-03-05T00:28:43.642Z,990.97
2019-03-05T00:29:43.622Z,991.10
2019-03-05T00:31:43.613Z,991.10
2019-03-05T00:32:43.601Z,991.08
2019-03-05T00:33:43.589Z,991.08
2019-03-05T00:34:43.581Z,991.00
2019-03-05T00:35:43.781Z,991.12
2019-03-05T00:36:43.568Z,991.12
2019-03-05T00:37:43.553Z,991.08
2019-03-05T00:38:43.548Z,991.18
2019-03-05T00:39:43.540Z,991.14
2019-03-05T00:40:43.534Z,991.22
2019-03-05T00:41:43.729Z,991.15
2019-03-05T00:42:43.513Z,991.27
2019-03-05T00:43:43.504Z,991.18
2019-03-05T00:45:43.488Z,991.09
2019-03-05T00:46:43.476Z,991.28
2019-03-05T00:47:43.474Z,991.25
2019-03-05T00:49:43.650Z,991.22
2019-03-05T00:50:43.649Z,991.14
2019-03-05T00:51:43.434Z,991.30
2019-03-05T00:52:43.426Z,991.26
2019-03-05T00:53:43.421Z,991.26
2019-03-05T00:55:43.401Z,991.30
2019-03-05T00:57:43.730Z,991.35
2019-03-05T00:58:43.373Z,991.33
2019-03-05T00:59:43.571Z,991.30
2019-03-05T01:00:43.369Z,991.36
2019-03-05T01:01:43.344Z,991.36
2019-03-05T01:02:43.348Z,991.41
2019-03-05T01:03:43.330Z,991.31
2019-03-05T01:04:43.521Z,991.31
2019-03-05T01:05:43.322Z,991.31
2019-03-05T01:06:43.301Z,991.31
2019-03-05T01:07:43.494Z,991.36
2019-03-05T01:08:43.289Z,991.31
2019-03-05T01:09:43.290Z,991.38
2019-03-05T01:10:43.274Z,991.31
2019-03-05T01:11:43.264Z,991.39
2019-03-05T01:12:43.256Z,991.42
2019-03-05T01:14:43.233Z,991.42
2019-03-05T01:16:43.222Z,991.43
2019-03-05T01:17:43.211Z,991.48
2019-03-05T01:18:43.205Z,991.37
2019-03-05T01:19:43.197Z,991.59
2019-03-05T01:21:43.174Z,991.52
2019-03-05T01:22:43.171Z,991.66
2019-03-05T01:23:43.162Z,991.43
2019-03-05T01:24:43.149Z,991.53
2019-03-05T01:25:43.138Z,991.55
2019-03-05T01:26:43.136Z,991.51
2019-03-05T01:27:43.124Z,991.51
2019-03-05T01:28:43.117Z,991.56
2019-03-05T01:30:43.095Z,991.59
2019-03-05T01:31:43.296Z,991.56
2019-03-05T01:32:43.082Z,991.53
2019-03-05T01:33:43.277Z,991.57
2019-03-05T01:35:43.060Z,991.74
2019-03-05T01:36:43.049Z,991.62
2019-03-05T01:37:43.242Z,991.60
2019-03-05T01:38:43.028Z,991.59
2019-03-05T01:39:43.023Z,991.59
2019-03-05T01:40:43.016Z,991.70
2019-03-05T01:41:43.008Z,991.62
2019-03-05T01:42:42.994Z,991.55
2019-03-05T01:43:42.988Z,991.57
2019-03-05T01:44:42.980Z,991.63
2019-03-05T01:45:43.174Z,991.53
2019-03-05T01:46:42.961Z,991.57
2019-03-05T01:47:42.949Z,991.64
2019-03-05T01:48:43.148Z,991.60
2019-03-05T01:49:42.933Z,991.53
2019-03-05T01:50:42.931Z,991.65
2019-03-05T01:51:42.919Z,991.68
2019-03-05T01:53:42.897Z,991.66
2019-03-05T01:54:43.094Z,991.66
2019-03-05T01:55:42.886Z,991.65
2019-03-05T01:56:42.884Z,991.65
2019-03-05T01:58:42.860Z,991.74
2019-03-05T01:59:42.851Z,991.68
2019-03-05T02:01:43.039Z,991.77
2019-03-05T02:02:42.827Z,991.72
2019-03-05T02:03:42.816Z,991.79
2019-03-05T02:04:42.813Z,991.92
2019-03-05T02:05:42.802Z,991.77
2019-03-05T02:08:42.777Z,991.73
2019-03-05T02:09:42.769Z,991.69
2019-03-05T02:10:42.755Z,991.73
2019-03-05T02:11:42.750Z,991.73
2019-03-05T02:12:42.939Z,991.86
2019-03-05T02:13:42.735Z,991.83
2019-03-05T02:14:42.724Z,991.84
2019-03-05T02:15:42.713Z,991.76
2019-03-05T02:16:43.113Z,991.73
2019-03-05T02:18:42.691Z,991.71
2019-03-05T02:19:42.684Z,991.85
2019-03-05T02:20:42.671Z,991.88
2019-03-05T02:21:42.666Z,991.87
2019-03-05T02:22:42.654Z,991.78
2019-03-05T02:23:45.677Z,991.75
2019-03-05T02:24:42.632Z,991.90
2019-03-05T02:25:42.626Z,991.86
2019-03-05T02:26:42.823Z,991.90
2019-03-05T02:27:42.611Z,991.84
2019-03-05T02:28:42.598Z,991.82
2019-03-05T02:29:42.596Z,991.83
2019-03-05T02:30:42.583Z,991.83
2019-03-05T02:31:42.784Z,991.87
2019-03-05T02:32:42.570Z,991.74
2019-03-05T02:33:42.565Z,991.73
2019-03-05T02:34:42.553Z,991.79
2019-03-05T02:35:42.548Z,991.86
2019-03-05T02:36:42.533Z,991.89
2019-03-05T02:37:42.531Z,991.91
2019-03-05T02:38:42.516Z,991.89
2019-03-05T02:39:42.510Z,991.86
2019-03-05T02:40:42.498Z,991.81
2019-03-05T02:41:42.697Z,991.81
2019-03-05T02:42:42.483Z,991.84
2019-03-05T02:43:42.470Z,991.87
2019-03-05T02:44:42.461Z,991.80
2019-03-05T02:45:42.456Z,991.87
2019-03-05T02:46:42.444Z,991.78
2019-03-05T02:47:42.445Z,991.96
2019-03-05T02:48:42.427Z,991.81
2019-03-05T02:49:42.423Z,991.87
2019-03-05T02:50:42.418Z,991.76
2019-03-05T02:51:42.415Z,991.91
2019-03-05T02:52:42.401Z,991.87
2019-03-05T02:53:42.391Z,991.94
2019-03-05T02:54:42.376Z,991.79
2019-03-05T02:55:42.372Z,991.86
2019-03-05T02:56:42.364Z,991.82
2019-03-05T02:57:42.352Z,992.00
2019-03-05T02:58:42.350Z,991.87
2019-03-05T02:59:42.340Z,991.87
2019-03-05T03:00:42.331Z,991.84
2019-03-05T03:02:42.522Z,991.88
2019-03-05T03:03:42.303Z,991.94
2019-03-05T03:04:42.290Z,991.92
2019-03-05T03:05:42.282Z,991.96
2019-03-05T03:06:42.480Z,991.94
2019-03-05T03:07:42.468Z,992.01
2019-03-05T03:08:42.265Z,991.99
2019-03-05T03:09:42.248Z,991.98
2019-03-05T03:10:42.244Z,991.97
2019-03-05T03:11:42.232Z,992.00
2019-03-05T03:12:42.234Z,991.94
2019-03-05T03:13:42.237Z,992.05
2019-03-05T03:14:42.211Z,992.04
2019-03-05T03:15:42.203Z,992.07
2019-03-05T03:16:42.393Z,992.04
2019-03-05T03:17:42.187Z,992.07
2019-03-05T03:19:42.170Z,992.08
2019-03-05T03:20:42.364Z,992.03
2019-03-05T03:22:42.136Z,992.18
2019-03-05T03:24:42.124Z,992.20
2019-03-05T03:25:42.114Z,992.17
2019-03-05T03:27:42.093Z,992.13
2019-03-05T03:28:42.084Z,992.27
2019-03-05T03:29:42.079Z,992.25
2019-03-05T03:32:42.050Z,992.31
2019-03-05T03:33:42.064Z,992.20
2019-03-05T03:35:42.027Z,992.21
2019-03-05T03:36:42.021Z,992.19
2019-03-05T03:37:42.005Z,992.28
2019-03-05T03:38:41.998Z,992.31
2019-03-05T03:39:41.994Z,992.42
2019-03-05T03:40:41.990Z,992.34
2019-03-05T03:41:42.171Z,992.32
2019-03-05T03:42:41.965Z,992.43
2019-03-05T03:43:41.953Z,992.30
2019-03-05T03:44:41.949Z,992.45
2019-03-05T03:45:41.943Z,992.36
2019-03-05T03:46:41.926Z,992.47
2019-03-05T03:47:41.923Z,992.49
2019-03-05T03:48:41.914Z,992.48
2019-03-05T03:49:41.895Z,992.33
2019-03-05T03:50:41.887Z,992.38
2019-03-05T03:51:41.880Z,992.35
2019-03-05T03:52:41.880Z,992.27
2019-03-05T03:53:41.861Z,992.35
2019-03-05T03:54:41.853Z,992.39
2019-03-05T03:55:42.050Z,992.44
2019-03-05T03:56:41.836Z,992.42
2019-03-05T03:57:41.832Z,992.53
2019-03-05T03:58:41.817Z,992.33
2019-03-05T03:59:41.809Z,992.43
2019-03-05T04:00:41.797Z,992.35
2019-03-05T04:01:41.792Z,992.39
2019-03-05T04:02:41.787Z,992.34
2019-03-05T04:03:41.773Z,992.38
2019-03-05T04:04:41.767Z,992.40
2019-03-05T04:05:41.754Z,992.37
2019-03-05T04:06:41.741Z,992.51
2019-03-05T04:07:41.737Z,992.52
2019-03-05T04:08:41.732Z,992.39
2019-03-05T04:09:41.720Z,992.44
2019-03-05T04:10:41.717Z,992.43
2019-03-05T04:11:41.705Z,992.40
2019-03-05T04:12:41.694Z,992.43
2019-03-05T04:13:41.692Z,992.41
2019-03-05T04:14:41.706Z,992.48
2019-03-05T04:15:41.663Z,992.50
2019-03-05T04:16:41.650Z,992.45
2019-03-05T04:17:41.647Z,992.64
2019-03-05T04:18:41.633Z,992.42
2019-03-05T04:19:41.833Z,992.56
2019-03-05T04:20:41.817Z,992.45
2019-03-05T04:21:41.611Z,992.50
2019-03-05T04:22:41.608Z,992.77
2019-03-05T04:23:41.588Z,992.52
2019-03-05T04:24:41.578Z,992.51
2019-03-05T04:26:41.563Z,992.56
2019-03-05T04:27:41.558Z,992.49
2019-03-05T04:28:41.544Z,992.47
2019-03-05T04:29:41.537Z,992.52
2019-03-05T04:31:41.526Z,992.61
2019-03-05T04:32:41.511Z,992.60
2019-03-05T04:33:41.504Z,992.56
2019-03-05T04:34:41.488Z,992.52
2019-03-05T04:35:41.483Z,992.49
2019-03-05T04:36:41.478Z,992.50
2019-03-05T04:37:41.465Z,992.49
2019-03-05T04:38:41.454Z,992.64
2019-03-05T04:40:41.442Z,992.53
2019-03-05T04:41:41.427Z,992.57
2019-03-05T04:42:41.419Z,992.62
2019-03-05T04:44:41.397Z,992.66
2019-03-05T04:45:41.396Z,992.70
2019-03-05T04:46:41.383Z,992.61
2019-03-05T04:47:41.372Z,992.63
2019-03-05T04:48:41.364Z,992.70
2019-03-05T04:49:41.355Z,992.68
2019-03-05T04:50:41.553Z,992.64
2019-03-05T04:53:41.320Z,992.73
2019-03-05T04:54:41.310Z,992.65
2019-03-05T04:55:41.300Z,992.73
2019-03-05T04:56:41.291Z,992.62
2019-03-05T04:57:41.287Z,992.52
2019-03-05T04:59:41.268Z,992.51
2019-03-05T05:00:41.254Z,992.55
2019-03-05T05:01:41.255Z,992.63
2019-03-05T05:02:41.241Z,992.62
2019-03-05T05:03:41.234Z,992.66
2019-03-05T05:06:41.202Z,992.78
2019-03-05T05:07:41.194Z,992.67
2019-03-05T05:08:41.189Z,992.77
2019-03-05T05:09:41.179Z,992.64
2019-03-05T05:10:41.164Z,992.75
2019-03-05T05:11:41.154Z,992.69
2019-03-05T05:12:41.149Z,992.77
2019-03-05T05:14:41.329Z,992.71
2019-03-05T05:15:41.121Z,992.71
2019-03-05T05:16:41.319Z,992.67
2019-03-05T05:20:41.079Z,992.81
2019-03-05T05:21:41.068Z,992.86
2019-03-05T05:22:41.059Z,992.69
2019-03-05T05:24:41.037Z,992.71
2019-03-05T05:25:41.028Z,992.70
2019-03-05T05:26:41.018Z,992.64
2019-03-05T05:27:41.011Z,992.64
2019-03-05T05:28:41.006Z,992.70
2019-03-05T05:29:40.992Z,992.75
2019-03-05T05:30:41.187Z,992.65
2019-03-05T05:32:40.964Z,992.77
2019-03-05T05:33:40.955Z,992.66
2019-03-05T05:34:40.948Z,992.69
2019-03-05T05:35:40.941Z,992.77
2019-03-05T05:36:40.930Z,992.68
2019-03-05T05:38:40.909Z,992.73
2019-03-05T05:39:40.903Z,992.75
2019-03-05T05:40:40.899Z,992.74
2019-03-05T05:41:40.884Z,992.80
2019-03-05T05:42:40.876Z,992.84
2019-03-05T05:43:40.866Z,992.83
2019-03-05T05:44:40.857Z,992.77
2019-03-05T05:45:40.857Z,992.77
2019-03-05T05:46:40.843Z,992.85
2019-03-05T05:47:40.829Z,992.78
2019-03-05T05:48:40.824Z,992.85
2019-03-05T05:49:40.815Z,992.78
2019-03-05T05:50:40.806Z,992.81
2019-03-05T05:52:40.787Z,992.88
2019-03-05T05:53:41.382Z,992.82
2019-03-05T05:54:40.769Z,992.83
2019-03-05T05:55:40.763Z,992.87
2019-03-05T05:56:40.750Z,992.83
2019-03-05T05:57:40.744Z,992.82
2019-03-05T05:58:40.727Z,992.86
2019-03-05T05:59:40.723Z,992.82
2019-03-05T06:01:40.699Z,992.77
2019-03-05T06:02:40.694Z,992.86
2019-03-05T06:03:40.684Z,992.94
2019-03-05T06:06:40.658Z,992.84
2019-03-05T06:07:40.647Z,992.83
2019-03-05T06:08:40.642Z,992.86
2019-03-05T06:09:40.630Z,992.77
2019-03-05T06:10:40.629Z,992.91
2019-03-05T06:11:40.620Z,992.87
2019-03-05T06:12:40.610Z,992.91
2019-03-05T06:13:40.594Z,992.92
2019-03-05T06:14:40.590Z,992.93
2019-03-05T06:15:40.783Z,993.07
2019-03-05T06:16:40.572Z,993.02
2019-03-05T06:17:40.557Z,993.04
2019-03-05T06:19:40.539Z,993.12
2019-03-05T06:21:41.758Z,993.10
2019-03-05T06:22:40.511Z,993.11
2019-03-05T06:23:40.508Z,993.29
2019-03-05T06:24:40.501Z,993.19
2019-03-05T06:25:40.492Z,993.14
2019-03-05T06:26:40.482Z,993.16
2019-03-05T06:27:40.670Z,993.12
2019-03-05T06:28:40.687Z,993.03
2019-03-05T06:29:40.447Z,993.06
2019-03-05T06:30:40.647Z,993.09
2019-03-05T06:31:40.439Z,993.13
2019-03-05T06:32:40.427Z,993.16
2019-03-05T06:33:40.412Z,993.18
2019-03-05T06:34:40.408Z,993.17
2019-03-05T06:35:40.399Z,993.17
2019-03-05T06:36:40.393Z,993.17
2019-03-05T06:37:40.380Z,993.14
2019-03-05T06:38:40.369Z,993.11
2019-03-05T06:39:40.355Z,993.19
2019-03-05T06:40:40.347Z,993.20
2019-03-05T06:41:40.341Z,993.12
2019-03-05T06:42:40.326Z,993.19
2019-03-05T06:44:40.311Z,993.19
2019-03-05T06:45:40.299Z,993.13
2019-03-05T06:46:40.292Z,993.12
2019-03-05T06:47:40.287Z,993.17
2019-03-05T06:48:40.275Z,993.21
2019-03-05T06:49:40.263Z,993.24
2019-03-05T06:50:40.261Z,993.22
2019-03-05T06:51:40.250Z,993.22
2019-03-05T06:52:40.240Z,993.24
2019-03-05T06:53:40.231Z,993.25
2019-03-05T06:54:40.217Z,993.24
2019-03-05T06:55:40.208Z,993.30
2019-03-05T06:56:40.207Z,993.30
2019-03-05T06:58:40.186Z,993.37
2019-03-05T06:59:40.174Z,993.38
2019-03-05T07:00:40.163Z,993.38
2019-03-05T07:01:40.155Z,993.44
2019-03-05T07:02:40.149Z,993.37
2019-03-05T07:03:40.134Z,993.45
2019-03-05T07:04:40.334Z,993.39
2019-03-05T07:06:40.120Z,993.38
2019-03-05T07:08:40.096Z,993.46
2019-03-05T07:10:40.277Z,993.41
2019-03-05T07:11:40.069Z,993.57
2019-03-05T07:13:40.046Z,993.48
2019-03-05T07:14:40.238Z,993.58
2019-03-05T07:15:40.031Z,993.51
2019-03-05T07:16:40.024Z,993.51
2019-03-05T07:18:40.008Z,993.61
2019-03-05T07:19:40.001Z,993.61
2019-03-05T07:20:40.192Z,993.57
2019-03-05T07:22:39.972Z,993.61
2019-03-05T07:23:39.959Z,993.57
2019-03-05T07:24:39.951Z,993.65
2019-03-05T07:26:39.934Z,993.59
2019-03-05T07:27:41.155Z,993.59
2019-03-05T07:28:39.909Z,993.66
2019-03-05T07:29:39.907Z,993.61
2019-03-05T07:30:39.896Z,993.60
2019-03-05T07:31:39.886Z,993.62
2019-03-05T07:32:39.881Z,993.62
2019-03-05T07:33:39.869Z,993.60
2019-03-05T07:34:39.859Z,993.63
2019-03-05T07:35:39.848Z,993.63
2019-03-05T07:36:39.841Z,993.68
2019-03-05T07:37:39.826Z,993.64
2019-03-05T07:38:39.826Z,993.65
2019-03-05T07:39:40.019Z,993.65
2019-03-05T07:40:39.804Z,993.67
2019-03-05T07:41:39.997Z,993.68
2019-03-05T07:42:39.989Z,993.69
2019-03-05T07:43:39.978Z,993.79
2019-03-05T07:44:39.771Z,993.80
2019-03-05T07:45:39.762Z,993.76
2019-03-05T07:46:39.747Z,993.81
2019-03-05T07:47:39.743Z,993.81
2019-03-05T07:48:39.731Z,993.80
2019-03-05T07:49:43.689Z,993.88
2019-03-05T07:50:39.713Z,993.90
2019-03-05T07:51:39.707Z,993.84
2019-03-05T07:52:39.697Z,993.94
2019-03-05T07:53:39.689Z,993.84
2019-03-05T07:54:39.681Z,993.88
2019-03-05T07:56:39.661Z,993.93
2019-03-05T07:57:39.649Z,994.01
2019-03-05T07:58:39.645Z,994.00
2019-03-05T07:59:39.636Z,993.96
2019-03-05T08:00:39.831Z,994.02
2019-03-05T08:01:39.619Z,994.00
2019-03-05T08:02:39.615Z,993.97
2019-03-05T08:03:39.599Z,994.04
2019-03-05T08:04:39.591Z,994.02
2019-03-05T08:05:39.587Z,994.19
2019-03-05T08:06:39.581Z,994.03
2019-03-05T08:09:39.553Z,994.03
2019-03-05T08:11:39.540Z,994.13
2019-03-05T08:12:39.532Z,994.11
2019-03-05T08:13:39.517Z,994.18
2019-03-05T08:14:39.517Z,994.17
2019-03-05T08:15:39.505Z,994.20
2019-03-05T08:16:39.494Z,994.22
2019-03-05T08:17:39.492Z,994.52
2019-03-05T08:18:39.481Z,994.26
2019-03-05T08:19:39.477Z,994.28
2019-03-05T08:20:39.469Z,994.27
2019-03-05T08:21:39.458Z,994.26
2019-03-05T08:22:39.447Z,994.29
2019-03-05T08:23:39.444Z,994.35
2019-03-05T08:25:39.428Z,994.33
2019-03-05T08:26:39.414Z,994.29
2019-03-05T08:27:39.413Z,994.25
2019-03-05T08:28:39.412Z,994.31
2019-03-05T08:29:39.394Z,994.41
2019-03-05T08:30:39.389Z,994.50
2019-03-05T08:31:39.373Z,994.31
2019-03-05T08:32:39.370Z,994.43
2019-03-05T08:33:39.364Z,994.36
2019-03-05T08:34:39.356Z,994.33
2019-03-05T08:35:39.544Z,994.42
2019-03-05T08:36:39.333Z,994.51
2019-03-05T08:37:39.327Z,994.39
2019-03-05T08:38:39.518Z,994.55
2019-03-05T08:39:39.308Z,994.54
2019-03-05T08:40:39.303Z,994.65
2019-03-05T08:41:39.294Z,994.61
2019-03-05T08:42:39.285Z,994.55
2019-03-05T08:43:39.276Z,994.59
2019-03-05T08:44:49.661Z,994.61
2019-03-05T08:45:39.263Z,994.67
2019-03-05T08:46:39.251Z,994.64
2019-03-05T08:47:39.242Z,994.67
2019-03-05T08:48:39.237Z,994.70
2019-03-05T08:49:39.230Z,994.73
2019-03-05T08:50:39.217Z,994.72
2019-03-05T08:51:39.420Z,994.77
2019-03-05T08:52:39.207Z,994.83
2019-03-05T08:53:49.267Z,994.91
2019-03-05T08:54:39.400Z,994.83
2019-03-05T08:55:39.186Z,994.84
2019-03-05T08:56:39.371Z,994.82
2019-03-05T08:57:39.160Z,994.82
2019-03-05T08:58:39.157Z,994.91
2019-03-05T08:59:39.151Z,994.82
2019-03-05T09:00:39.141Z,994.86
2019-03-05T09:01:39.140Z,994.88
2019-03-05T09:03:39.146Z,994.84
2019-03-05T09:04:39.116Z,994.90
2019-03-05T09:05:39.101Z,995.06
2019-03-05T09:07:39.090Z,995.00
2019-03-05T09:08:39.081Z,995.11
2019-03-05T09:09:39.075Z,995.02
2019-03-05T09:10:39.069Z,995.08
2019-03-05T09:11:39.260Z,995.10
2019-03-05T09:12:39.048Z,995.10
2019-03-05T09:13:39.045Z,995.08
2019-03-05T09:14:39.038Z,995.03
2019-03-05T09:16:39.022Z,995.09
2019-03-05T09:17:39.021Z,995.07
2019-03-05T09:18:39.215Z,995.05
2019-03-05T09:19:39.203Z,995.04
2019-03-05T09:20:38.994Z,995.13
2019-03-05T09:21:38.984Z,995.12
2019-03-05T09:22:38.979Z,995.08
2019-03-05T09:23:38.974Z,995.16
2019-03-05T09:24:39.167Z,995.19
2019-03-05T09:25:38.961Z,995.28
2019-03-05T09:26:38.947Z,995.32
2019-03-05T09:27:38.941Z,995.17
2019-03-05T09:28:38.932Z,995.22
2019-03-05T09:29:39.132Z,995.20
2019-03-05T09:31:38.914Z,995.15
2019-03-05T09:32:38.909Z,995.20
2019-03-05T09:33:38.902Z,995.18
2019-03-05T09:35:38.882Z,995.21
2019-03-05T09:36:50.032Z,995.23
2019-03-05T09:37:38.872Z,995.27
2019-03-05T09:38:38.860Z,995.34
2019-03-05T09:39:38.853Z,995.32
2019-03-05T09:41:38.838Z,995.25
2019-03-05T09:42:40.229Z,995.34
2019-03-05T09:43:38.829Z,995.32
2019-03-05T09:44:38.821Z,995.35
2019-03-05T09:45:38.812Z,995.36
2019-03-05T09:47:38.797Z,995.27
2019-03-05T09:48:38.785Z,995.34
2019-03-05T09:49:38.782Z,995.37
2019-03-05T09:50:38.977Z,995.46
2019-03-05T09:51:38.771Z,995.36
2019-03-05T09:52:38.754Z,995.38
2019-03-05T09:55:38.733Z,995.45
2019-03-05T09:56:38.734Z,995.49
2019-03-05T09:57:38.917Z,995.44
2019-03-05T09:58:38.714Z,995.49
2019-03-05T09:59:38.701Z,995.51
2019-03-05T10:00:38.902Z,995.51
2019-03-05T10:01:38.686Z,995.56
2019-03-05T10:04:38.671Z,995.54
2019-03-05T10:05:38.661Z,995.60
2019-03-05T10:06:38.855Z,995.61
2019-03-05T10:07:38.858Z,995.63
2019-03-05T10:10:38.626Z,995.63
2019-03-05T10:11:38.626Z,995.69
2019-03-05T10:12:38.614Z,995.63
2019-03-05T10:13:38.606Z,995.66
2019-03-05T10:14:38.602Z,995.71
2019-03-05T10:15:38.596Z,995.69
2019-03-05T10:16:38.586Z,995.68
2019-03-05T10:19:38.653Z,995.58
2019-03-05T10:20:38.564Z,995.60
2019-03-05T10:21:46.126Z,995.59
2019-03-05T10:22:38.557Z,995.60
2019-03-05T10:23:39.773Z,995.60
2019-03-05T10:24:38.542Z,995.72
2019-03-05T10:25:38.532Z,995.71
2019-03-05T10:27:38.523Z,995.63
2019-03-05T10:29:38.505Z,995.67
2019-03-05T10:30:38.502Z,995.59
2019-03-05T10:31:38.494Z,995.66
2019-03-05T10:32:38.489Z,995.67
2019-03-05T10:33:38.480Z,995.68
2019-03-05T10:34:38.478Z,995.61
2019-03-05T10:35:38.667Z,995.67
2019-03-05T10:36:38.463Z,995.70
2019-03-05T10:37:38.458Z,995.78
2019-03-05T10:38:38.452Z,995.73
2019-03-05T10:39:38.445Z,995.75
2019-03-05T10:40:38.481Z,995.80
2019-03-05T10:41:38.427Z,995.77
2019-03-05T10:42:41.126Z,995.83
2019-03-05T10:44:38.409Z,995.80
2019-03-05T10:45:38.398Z,995.82
2019-03-05T10:46:38.400Z,995.85
2019-03-05T10:47:38.387Z,995.88
2019-03-05T10:48:38.385Z,995.87
2019-03-05T10:49:38.377Z,995.83
2019-03-05T10:50:38.370Z,995.91
2019-03-05T10:51:38.363Z,995.93
2019-03-05T10:52:38.357Z,995.87
2019-03-05T10:53:38.346Z,995.93
2019-03-05T10:54:38.345Z,995.90
2019-03-05T10:55:38.341Z,995.92
2019-03-05T10:56:38.333Z,996.11
2019-03-05T10:57:38.345Z,996.00
2019-03-05T10:58:38.317Z,995.92
2019-03-05T10:59:38.320Z,995.92
2019-03-05T11:00:38.316Z,995.85
2019-03-05T11:01:38.305Z,996.00
2019-03-05T11:02:38.299Z,995.96
2019-03-05T11:04:45.644Z,996.01
2019-03-05T11:05:38.284Z,996.05
2019-03-05T11:06:38.275Z,996.01
2019-03-05T11:07:38.269Z,995.98
2019-03-05T11:08:38.266Z,996.04
2019-03-05T11:09:38.265Z,996.04
2019-03-05T11:10:38.259Z,995.91
2019-03-05T11:11:38.253Z,996.09
2019-03-05T11:12:38.247Z,996.09
2019-03-05T11:13:38.245Z,996.10
2019-03-05T11:14:38.240Z,996.14
2019-03-05T11:15:38.236Z,996.14
2019-03-05T11:16:38.236Z,996.24
2019-03-05T11:17:38.230Z,996.15
2019-03-05T11:18:38.423Z,996.14
2019-03-05T11:20:38.220Z,996.19
2019-03-05T11:21:38.206Z,996.24
2019-03-05T11:22:38.205Z,996.20
2019-03-05T11:23:38.207Z,996.25
2019-03-05T11:24:38.198Z,996.22
2019-03-05T11:25:38.198Z,996.24
2019-03-05T11:26:38.212Z,996.25
2019-03-05T11:27:38.189Z,996.33
2019-03-05T11:28:38.188Z,996.34
2019-03-05T11:29:38.192Z,996.34
2019-03-05T11:30:38.186Z,996.33
2019-03-05T11:31:38.182Z,996.35
2019-03-05T11:32:38.167Z,996.35
2019-03-05T11:33:38.172Z,996.30
2019-03-05T11:34:38.164Z,996.29
2019-03-05T11:35:38.168Z,996.30
2019-03-05T11:36:38.153Z,996.32
2019-03-05T11:37:38.157Z,996.30
2019-03-05T11:38:38.354Z,996.28
2019-03-05T11:40:38.348Z,996.35
2019-03-05T11:41:38.139Z,996.32
2019-03-05T11:42:38.136Z,996.34
2019-03-05T11:43:38.804Z,996.35
2019-03-05T11:44:38.135Z,996.34
2019-03-05T11:45:38.129Z,996.36
2019-03-05T11:46:38.185Z,996.35
2019-03-05T11:47:38.127Z,996.42
2019-03-05T11:48:38.117Z,996.38
2019-03-05T11:49:38.121Z,996.42
2019-03-05T11:50:38.112Z,996.49
2019-03-05T11:51:38.103Z,996.55
2019-03-05T11:52:38.099Z,996.56
2019-03-05T11:53:38.102Z,996.59
2019-03-05T11:54:38.096Z,996.55
2019-03-05T11:55:38.097Z,996.65
2019-03-05T11:56:38.099Z,996.62
2019-03-05T11:57:38.078Z,996.64
2019-03-05T11:59:38.068Z,996.72
2019-03-05T12:00:38.071Z,996.66
2019-03-05T12:01:38.065Z,996.72
2019-03-05T12:02:38.060Z,996.71
2019-03-05T12:03:38.057Z,996.72
2019-03-05T12:04:38.048Z,996.74
2019-03-05T12:05:38.044Z,996.77
2019-03-05T12:06:38.038Z,996.77
2019-03-05T12:07:38.041Z,996.73
2019-03-05T12:08:38.029Z,996.83
2019-03-05T12:09:38.025Z,996.75
2019-03-05T12:10:38.023Z,996.82
2019-03-05T12:11:38.016Z,996.83
2019-03-05T12:12:38.021Z,996.87
2019-03-05T12:16:38.217Z,996.97
2019-03-05T12:17:38.004Z,996.92
2019-03-05T12:18:38.003Z,996.99
2019-03-05T12:20:38.002Z,996.96
2019-03-05T12:21:37.999Z,996.99
2019-03-05T12:22:38.001Z,996.95
2019-03-05T12:23:38.191Z,996.99
2019-03-05T12:24:37.989Z,996.98
2019-03-05T12:25:39.851Z,996.99
2019-03-05T12:26:37.980Z,997.00
2019-03-05T12:27:38.022Z,996.96
2019-03-05T12:28:37.977Z,996.89
2019-03-05T12:29:37.972Z,996.90
2019-03-05T12:30:37.970Z,996.97
2019-03-05T12:31:38.375Z,996.97
2019-03-05T12:33:37.960Z,996.97
2019-03-05T12:34:37.960Z,996.91
2019-03-05T12:35:37.955Z,996.98
2019-03-05T12:36:37.951Z,997.03
2019-03-05T12:37:37.946Z,997.11
2019-03-05T12:39:37.939Z,997.03
2019-03-05T12:40:37.933Z,997.04
2019-03-05T12:41:37.934Z,997.00
2019-03-05T12:42:37.926Z,997.09
2019-03-05T12:43:37.924Z,997.15
2019-03-05T12:44:37.916Z,997.04
2019-03-05T12:45:37.915Z,997.06
2019-03-05T12:46:37.905Z,996.99
2019-03-05T12:47:37.900Z,997.02
2019-03-05T12:48:40.361Z,997.01
2019-03-05T12:49:37.895Z,997.07
2019-03-05T12:50:37.891Z,996.94
2019-03-05T12:51:37.889Z,996.99
2019-03-05T12:52:37.881Z,997.05
2019-03-05T12:53:37.872Z,997.06
2019-03-05T12:54:37.868Z,997.11
2019-03-05T12:55:38.074Z,997.14
2019-03-05T12:56:37.864Z,997.19
2019-03-05T12:57:37.860Z,997.22
2019-03-05T12:58:37.854Z,997.15
2019-03-05T12:59:37.847Z,997.16
2019-03-05T13:00:37.854Z,997.15
2019-03-05T13:01:38.051Z,997.16
2019-03-05T13:02:37.848Z,997.16
2019-03-05T13:04:37.840Z,997.21
2019-03-05T13:05:37.838Z,997.22
2019-03-05T13:06:37.835Z,997.13
2019-03-05T13:07:37.833Z,997.15
2019-03-05T13:08:37.829Z,997.25
2019-03-05T13:09:37.827Z,997.16
2019-03-05T13:10:37.829Z,997.18
2019-03-05T13:11:37.831Z,997.19
2019-03-05T13:12:40.030Z,997.18
2019-03-05T13:13:37.821Z,997.21
2019-03-05T13:14:38.278Z,997.23
2019-03-05T13:15:37.821Z,997.16
2019-03-05T13:16:39.404Z,997.16
2019-03-05T13:17:37.825Z,997.17
2019-03-05T13:18:37.821Z,997.15
2019-03-05T13:20:37.811Z,997.18
2019-03-05T13:21:37.824Z,997.18
2019-03-05T13:22:37.806Z,997.22
2019-03-05T13:23:37.808Z,997.12
2019-03-05T13:25:38.462Z,997.23
2019-03-05T13:26:41.092Z,997.25
2019-03-05T13:27:37.799Z,997.27
2019-03-05T13:28:40.563Z,997.26
2019-03-05T13:29:37.800Z,997.30
2019-03-05T13:30:40.160Z,997.24
2019-03-05T13:31:38.693Z,997.25
2019-03-05T13:32:37.815Z,997.25
2019-03-05T13:33:41.706Z,997.27
2019-03-05T13:34:37.788Z,997.26
2019-03-05T13:35:37.784Z,997.24
2019-03-05T13:36:37.785Z,997.23
2019-03-05T13:39:37.778Z,997.32
2019-03-05T13:40:39.978Z,997.25
2019-03-05T13:41:37.776Z,997.33
2019-03-05T13:43:37.767Z,997.33
2019-03-05T13:44:37.771Z,997.33
2019-03-05T13:45:37.764Z,997.39
2019-03-05T13:47:41.654Z,997.42
2019-03-05T13:48:37.757Z,997.51
2019-03-05T13:49:40.951Z,997.50
2019-03-05T13:50:37.952Z,997.51
2019-03-05T13:51:37.745Z,997.58
2019-03-05T13:52:37.749Z,997.59
2019-03-05T13:53:39.165Z,997.45
2019-03-05T13:54:37.748Z,997.60
2019-03-05T13:55:40.235Z,997.57
2019-03-05T13:56:42.330Z,997.59
2019-03-05T13:57:37.749Z,997.62
2019-03-05T13:58:37.751Z,997.57
2019-03-05T14:00:37.755Z,997.51
2019-03-05T14:01:37.752Z,997.51
2019-03-05T14:02:37.759Z,997.53
2019-03-05T14:03:37.759Z,997.51
2019-03-05T14:04:37.962Z,997.55
2019-03-05T14:05:37.756Z,997.54
2019-03-05T14:06:37.774Z,997.53